Terminal Aerodrome Forecast
Issued by NWS Portland, ME

Home | Current Version | Previous Version | Text Only | Print | Product List | Glossary On
Versions: 1 2 3 4 5 6 7 8 9 10 11 12 13 14 15 16 17 18 19 20 21 22 23 24 25
000
FTUS41 KGYX 250447 AAA
TAFPWM
TAF AMD
KPWM 250447Z 2505/2524 08005KT P6SM BKN006
     FM251300 07008KT P6SM SCT025 BKN050 OVC100
     FM251600 08008KT P6SM BKN025 OVC050
     FM252000 07014G24KT 2SM -RA BR BKN007 OVC012=

USA.gov is the U.S. government's official web portal to all federal, state and local government web resources and services.